If you wish to contribute or participate in the discussions about articles you are invited to join SKYbrary as a registered user

 Actions

Rome/Ciampino

From SKYbrary Wiki

LIRA /
Revision as of 09:54, 13 May 2010 by Editor1 (talk | contribs)
Airport
ICAO: LIRA
Summary
Name Rome/Ciampino
Region Europe
Territory Italy IT.gif
Location Rome, Italy
Serving
Coordinates 41° 47' 54.00" N, 12° 35' 48.00" E
Runways
Designator Length Width Surface ROPS
15/33 2207 m7,240.814 ft <br /> 47 m154.199 ft <br /> ASP yes/yes


METAR
Observation LIRA 272350Z AUTO VRB01KT 9999 ///////// 24/15 Q1017
Station Roma / Ciampino
Date/Time 27 July 2021 23:50:00
Wind direction °
Wind speed 01 kts
Lowest cloud amount n/a
Temperature 24°C
Dew point 15°C
Humidity 57%
QNH 1017 hPa
Weather condition n/a


Rome/Ciampino Airport

ICAO: LIRA IATA: CIA

Description

Secondary international airport serving Rome.

Climatology

Dry-summer subtropical ”Mediterranean" climate (Köppen climate classification Csa) - characterized by hot, dry summers and mild winters. During the summer, subtropical high pressure cells dominate, making rainfall unlikely except for the occasional thunderstorm. In the winter, periodic storms bring rain (snow at higher elevations).

Maps

Terrain

Loading map...

Airport Layout

Loading map...

Accidents & Serious Incidents at or in vicinity of LIRA